This is the latest recevied weather packets stored in our database for station/object EA2CW-13. If no packets are shown the sender has not sent any weather packets the latest 1 day(s).
| Time | Temp. | Humidity | Pressure | Rain* | Wind** | Luminosity | Snow |
|---|---|---|---|---|---|---|---|
| 1778101740 | 13.89° C | 83% | 1052 hPa | - | - | 0 W/m² | - |
| 1778088637 | 19.44° C | 65% | 1050.9 hPa | - | - | 22 W/m² | - |
| 1778087701 | 20° C | 64% | 1051.1 hPa | - | - | 26 W/m² | - |
| 1778085829 | 22.22° C | 73% | 1051 hPa | - | - | 76 W/m² | - |
| 1778084893 | 20.56° C | 76% | 1051.2 hPa | - | - | 45 W/m² | - |
| 1778083957 | 18.33° C | 80% | 1051.5 hPa | - | - | 35 W/m² | - |
| 1778081149 | 16.67° C | 84% | 1051.7 hPa | - | - | 27 W/m² | - |
| 1778078341 | 16.11° C | 75% | 1051.9 hPa | - | - | 26 W/m² | - |
| 1778062430 | 20° C | 49% | 1051.3 hPa | - | - | 46 W/m² | - |
| 1778061494 | 21.11° C | 50% | 1051.3 hPa | - | - | 76 W/m² | - |
| 1778060558 | 19.44° C | 56% | 1051.4 hPa | - | - | 54 W/m² | - |
| 1778059622 | 17.78° C | 56% | 1051.4 hPa | - | - | 41 W/m² | - |
| 1778058686 | 17.78° C | 56% | 1051.2 hPa | - | - | 36 W/m² | - |
| 1778057750 | 18.33° C | 57% | 1051.2 hPa | - | - | 48 W/m² | - |
| 1778056814 | 16.67° C | 58% | 1051.1 hPa | - | - | 17 W/m² | - |
| 1778055878 | 17.78° C | 57% | 1051.1 hPa | - | - | 36 W/m² | - |
| 1778054942 | 17.78° C | 60% | 1051.2 hPa | - | - | 45 W/m² | - |
| 1778052134 | 16.11° C | 81% | 1051.1 hPa | - | - | 34 W/m² | - |
| 1778051198 | 15.56° C | 84% | 1051.1 hPa | - | - | 33 W/m² | - |
| 1778047454 | 13.89° C | 89% | 1050.9 hPa | - | - | 6 W/m² | - |
| 1778044646 | 12.78° C | 91% | 1050.7 hPa | - | - | 1 W/m² | - |
| 1778038095 | 12.78° C | 92% | 1050.7 hPa | - | - | 0 W/m² | - |
| 1778037159 | 12.78° C | 93% | 1050.7 hPa | - | - | 0 W/m² | - |
| 1778036223 | 12.22° C | 94% | 1050.8 hPa | - | - | 0 W/m² | - |
| 1778035287 | 12.78° C | 93% | 1050.8 hPa | - | - | 0 W/m² | - |
* Rain since midnight (hover to see other rain measurements)
** Current wind speed in m/s (hover to see current wind gust speed)